createdAt,value
2023-02-19T00:01:09.217Z,88
2023-02-19T00:03:41.757Z,83
2023-02-19T00:06:14.675Z,88
2023-02-19T00:08:51.509Z,88
2023-02-19T00:11:29.527Z,91
2023-02-19T00:14:02.717Z,85
2023-02-19T00:16:39.514Z,83
2023-02-19T00:19:16.889Z,76
2023-02-19T00:21:50.804Z,78
2023-02-19T00:24:23.556Z,77
2023-02-19T00:26:56.357Z,75
2023-02-19T00:29:34.281Z,76
2023-02-19T00:32:07.652Z,77
2023-02-19T00:34:40.443Z,74
2023-02-19T00:37:19.288Z,74
2023-02-19T00:39:52.680Z,78
2023-02-19T00:42:25.462Z,79
2023-02-19T00:45:02.304Z,73
2023-02-19T00:47:35.550Z,75
2023-02-19T00:50:12.359Z,76
2023-02-19T00:52:45.132Z,82
2023-02-19T00:55:19.250Z,74
2023-02-19T00:57:52.017Z,70
2023-02-19T01:00:28.875Z,80
2023-02-19T01:03:06.283Z,67
2023-02-19T01:05:39.285Z,70
2023-02-19T01:08:17.043Z,64
2023-02-19T01:10:54.278Z,77
2023-02-19T01:13:27.207Z,69
2023-02-19T01:16:04.014Z,68
2023-02-19T01:18:37.423Z,64
2023-02-19T01:21:15.015Z,60
2023-02-19T01:23:48.238Z,65
2023-02-19T01:26:25.058Z,63
2023-02-19T01:28:58.210Z,60
2023-02-19T01:31:40.091Z,62
2023-02-19T01:34:14.102Z,58
2023-02-19T01:36:46.886Z,60
2023-02-19T01:39:19.796Z,60
2023-02-19T01:41:52.922Z,60
2023-02-19T01:44:25.739Z,60
2023-02-19T01:46:58.507Z,60
2023-02-19T01:49:31.342Z,56
2023-02-19T01:52:07.264Z,64
2023-02-19T01:54:44.444Z,60
2023-02-19T01:57:17.546Z,65
2023-02-19T01:59:50.441Z,60
2023-02-19T02:02:27.340Z,55
2023-02-19T02:05:04.151Z,60
2023-02-19T02:07:41.196Z,59
2023-02-19T02:10:14.744Z,57
2023-02-19T02:12:47.098Z,60
2023-02-19T02:15:20.024Z,60
2023-02-19T02:17:57.321Z,64
2023-02-19T02:20:34.173Z,65
2023-02-19T02:23:11.460Z,67
2023-02-19T02:25:44.270Z,73
2023-02-19T02:28:20.968Z,68
2023-02-19T02:30:58.450Z,64
2023-02-19T02:33:31.384Z,68
2023-02-19T02:36:04.109Z,61
2023-02-19T02:38:40.923Z,62
2023-02-19T02:41:17.062Z,56
2023-02-19T02:43:53.930Z,60
2023-02-19T02:46:31.326Z,62
2023-02-19T02:49:04.125Z,63
2023-02-19T02:51:36.854Z,59
2023-02-19T02:54:14.252Z,58
2023-02-19T02:56:48.100Z,56
2023-02-19T02:59:25.180Z,52
2023-02-19T03:02:02.019Z,56
2023-02-19T03:04:38.971Z,56
2023-02-19T03:07:12.218Z,55
2023-02-19T03:09:44.825Z,56
2023-02-19T03:12:17.864Z,55
2023-02-19T03:14:55.169Z,52
2023-02-19T03:17:28.059Z,49
2023-02-19T03:20:04.941Z,53
2023-02-19T03:22:37.832Z,54
2023-02-19T03:25:14.695Z,52
2023-02-19T03:27:51.569Z,52
2023-02-19T03:30:24.535Z,50
2023-02-19T03:32:58.399Z,45
2023-02-19T03:35:31.310Z,48
2023-02-19T03:38:04.293Z,47
2023-02-19T03:40:41.165Z,48
2023-02-19T03:43:15.164Z,51
2023-02-19T03:45:48.525Z,49
2023-02-19T03:48:22.315Z,47
2023-02-19T03:50:59.613Z,48
2023-02-19T03:53:33.041Z,48
2023-02-19T03:56:09.989Z,49
2023-02-19T03:58:43.336Z,49
2023-02-19T04:01:16.267Z,49
2023-02-19T04:03:49.087Z,47
2023-02-19T04:06:22.002Z,49
2023-02-19T04:08:58.915Z,48
2023-02-19T04:11:31.808Z,52
2023-02-19T04:14:04.692Z,52
2023-02-19T04:16:37.633Z,48
2023-02-19T04:19:10.557Z,52
2023-02-19T04:21:43.392Z,48
2023-02-19T04:24:20.398Z,44
2023-02-19T04:26:53.154Z,50
2023-02-19T04:29:26.005Z,48
2023-02-19T04:31:59.320Z,48
2023-02-19T04:34:32.251Z,49
2023-02-19T04:37:05.049Z,48
2023-02-19T04:39:37.932Z,50
2023-02-19T04:42:10.876Z,52
2023-02-19T04:44:47.743Z,52
2023-02-19T04:47:24.801Z,48
2023-02-19T04:49:57.784Z,44
2023-02-19T04:52:30.682Z,44
2023-02-19T04:55:07.543Z,46
2023-02-19T04:57:40.536Z,45
2023-02-19T05:00:13.396Z,51
2023-02-19T05:02:47.230Z,48
2023-02-19T05:05:24.233Z,48
2023-02-19T05:07:57.143Z,46
2023-02-19T05:10:30.051Z,52
2023-02-19T05:13:02.998Z,52
2023-02-19T05:15:35.910Z,44
2023-02-19T05:18:08.859Z,48
2023-02-19T05:20:42.079Z,48
2023-02-19T05:23:14.517Z,48
2023-02-19T05:25:47.536Z,49
2023-02-19T05:28:24.401Z,47
2023-02-19T05:30:57.863Z,45
2023-02-19T05:33:30.682Z,45
2023-02-19T05:36:03.495Z,44
2023-02-19T05:38:36.461Z,47
2023-02-19T05:41:09.743Z,44
2023-02-19T05:43:42.249Z,45
2023-02-19T05:46:15.197Z,49
2023-02-19T05:48:52.058Z,47
2023-02-19T05:51:24.944Z,48
2023-02-19T05:53:57.932Z,48
2023-02-19T05:56:30.843Z,48
2023-02-19T05:59:07.755Z,50
2023-02-19T06:01:40.741Z,56
2023-02-19T06:04:13.671Z,53
2023-02-19T06:06:50.559Z,59
2023-02-19T06:09:23.493Z,54
2023-02-19T06:11:56.388Z,59
2023-02-19T06:14:29.467Z,60
2023-02-19T06:17:02.293Z,59
2023-02-19T06:19:35.265Z,60
2023-02-19T06:22:12.086Z,59
2023-02-19T06:24:45.114Z,60
2023-02-19T06:27:18.014Z,57
2023-02-19T06:29:50.878Z,60
2023-02-19T06:32:23.913Z,60
2023-02-19T06:34:56.760Z,56
2023-02-19T06:37:30.066Z,56
2023-02-19T06:40:03.378Z,60
2023-02-19T06:42:36.263Z,60
2023-02-19T06:45:17.655Z,60
2023-02-19T06:47:50.629Z,63
2023-02-19T06:50:23.414Z,67
2023-02-19T06:53:00.438Z,65
2023-02-19T06:55:33.365Z,64
2023-02-19T06:58:04.336Z,56
2023-02-19T07:00:37.108Z,74
2023-02-19T07:03:10.043Z,84
2023-02-19T07:05:42.939Z,85
2023-02-19T07:08:15.912Z,81
2023-02-19T07:10:48.631Z,72
2023-02-19T07:13:21.590Z,69
2023-02-19T07:15:54.560Z,66
2023-02-19T07:18:27.375Z,60
2023-02-19T07:21:00.550Z,55
2023-02-19T07:23:36.952Z,56
2023-02-19T07:26:14.597Z,54
2023-02-19T07:28:47.449Z,50
2023-02-19T07:31:20.417Z,48
2023-02-19T07:33:57.269Z,44
2023-02-19T07:36:30.203Z,43
2023-02-19T07:39:03.100Z,44
2023-02-19T07:41:35.956Z,44
2023-02-19T07:44:08.889Z,37
2023-02-19T07:46:41.813Z,40
2023-02-19T07:49:18.606Z,36
2023-02-19T07:51:51.682Z,39
2023-02-19T07:54:24.586Z,39
2023-02-19T07:56:57.528Z,36
2023-02-19T07:59:34.558Z,32
2023-02-19T08:02:07.560Z,36
2023-02-19T08:04:40.081Z,36
2023-02-19T08:07:17.027Z,40
2023-02-19T08:09:54.041Z,36
2023-02-19T08:12:27.110Z,38
2023-02-19T08:15:00.086Z,39
2023-02-19T08:17:37.055Z,33
2023-02-19T08:20:09.894Z,36
2023-02-19T08:22:42.777Z,38
2023-02-19T08:25:16.163Z,41
2023-02-19T08:27:52.547Z,37
2023-02-19T08:30:26.374Z,35
2023-02-19T08:33:00.716Z,41
2023-02-19T08:35:32.494Z,36
2023-02-19T08:38:10.303Z,37
2023-02-19T08:40:43.470Z,36
2023-02-19T08:43:17.133Z,36
2023-02-19T08:45:49.147Z,36
2023-02-19T08:48:22.832Z,38
2023-02-19T08:50:54.913Z,36
2023-02-19T08:53:33.775Z,33
2023-02-19T08:56:11.029Z,40
2023-02-19T08:58:46.490Z,40
2023-02-19T09:01:19.208Z,36
2023-02-19T09:03:56.943Z,36
2023-02-19T09:06:30.837Z,36
2023-02-19T09:09:04.036Z,32
2023-02-19T09:11:37.542Z,36
2023-02-19T09:14:10.702Z,43
2023-02-19T09:16:45.052Z,36
2023-02-19T09:19:18.399Z,36
2023-02-19T09:21:51.592Z,36
2023-02-19T09:24:29.577Z,32
2023-02-19T09:27:03.435Z,44
2023-02-19T09:29:36.735Z,39
2023-02-19T09:32:14.862Z,38
2023-02-19T09:34:47.650Z,40
2023-02-19T09:37:21.234Z,40
2023-02-19T09:39:55.246Z,44
2023-02-19T09:42:30.744Z,42
2023-02-19T09:45:07.544Z,45
2023-02-19T09:47:41.163Z,44
2023-02-19T09:50:14.074Z,42
2023-02-19T09:52:47.076Z,44
2023-02-19T09:55:21.087Z,40
2023-02-19T09:57:58.841Z,44
2023-02-19T10:00:32.164Z,44
2023-02-19T10:03:05.060Z,44
2023-02-19T10:05:43.863Z,44
2023-02-19T10:08:16.737Z,48
2023-02-19T10:10:50.816Z,47
2023-02-19T10:13:28.092Z,48
2023-02-19T10:16:01.058Z,40
2023-02-19T10:18:38.684Z,38
2023-02-19T10:21:12.914Z,40
2023-02-19T10:23:45.632Z,38
2023-02-19T10:26:19.878Z,33
2023-02-19T10:28:52.491Z,40
2023-02-19T10:31:29.851Z,36
2023-02-19T10:34:03.491Z,36
2023-02-19T10:36:37.436Z,36
2023-02-19T10:39:10.929Z,36
2023-02-19T10:41:48.244Z,37
2023-02-19T10:44:26.333Z,32
2023-02-19T10:47:02.415Z,33
2023-02-19T10:49:36.475Z,35
2023-02-19T10:52:09.778Z,37
2023-02-19T10:54:42.518Z,36
2023-02-19T10:57:15.223Z,36
2023-02-19T10:59:53.131Z,36
2023-02-19T11:02:29.242Z,31
2023-02-19T11:05:02.974Z,32
2023-02-19T11:07:36.822Z,32
2023-02-19T11:10:09.137Z,36
2023-02-19T11:12:43.125Z,32
2023-02-19T11:15:20.148Z,28
2023-02-19T11:17:53.017Z,36
2023-02-19T11:20:26.705Z,36
2023-02-19T11:23:02.923Z,35
2023-02-19T11:25:42.019Z,32
2023-02-19T11:28:13.947Z,32
2023-02-19T11:30:52.803Z,32
2023-02-19T11:33:26.223Z,30
2023-02-19T11:36:00.946Z,32
2023-02-19T11:38:38.258Z,32
2023-02-19T11:41:11.672Z,31
2023-02-19T11:43:48.916Z,31
2023-02-19T11:46:21.810Z,31
2023-02-19T11:48:54.853Z,27
2023-02-19T11:51:27.792Z,27
2023-02-19T11:54:01.485Z,25
2023-02-19T11:56:38.845Z,28
2023-02-19T11:59:11.791Z,32
2023-02-19T12:01:44.671Z,32
2023-02-19T12:04:17.724Z,32
2023-02-19T12:06:50.431Z,24
2023-02-19T12:09:23.242Z,26
2023-02-19T12:12:00.206Z,22
2023-02-19T12:14:34.150Z,23
2023-02-19T12:17:11.971Z,28
2023-02-19T12:19:49.923Z,36
2023-02-19T12:22:26.233Z,27
2023-02-19T12:25:04.210Z,24
2023-02-19T12:27:38.117Z,19
2023-02-19T12:30:12.113Z,20
2023-02-19T12:32:46.216Z,23
2023-02-19T12:35:19.879Z,23
2023-02-19T12:37:57.801Z,25
2023-02-19T12:40:35.108Z,28
2023-02-19T12:43:08.875Z,23
2023-02-19T12:45:42.396Z,26
2023-02-19T12:48:15.746Z,20
2023-02-19T12:50:48.785Z,24
2023-02-19T12:53:26.368Z,27
2023-02-19T12:56:00.519Z,24
2023-02-19T12:58:34.462Z,20
2023-02-19T13:01:08.036Z,28
2023-02-19T13:03:41.569Z,24
2023-02-19T13:06:15.338Z,22
2023-02-19T13:09:05.191Z,24
2023-02-19T13:11:24.126Z,24
2023-02-19T13:14:00.040Z,20
2023-02-19T13:16:34.280Z,28
2023-02-19T13:19:11.045Z,28
2023-02-19T13:21:43.957Z,24
2023-02-19T13:24:20.191Z,28
2023-02-19T13:26:57.998Z,28
2023-02-19T13:29:35.398Z,28
2023-02-19T13:32:13.220Z,24
2023-02-19T13:34:50.472Z,28
2023-02-19T13:37:24.505Z,30
2023-02-19T13:39:58.005Z,27
2023-02-19T13:42:35.401Z,24
2023-02-19T13:45:09.207Z,24
2023-02-19T13:47:47.219Z,24
2023-02-19T13:50:25.897Z,24
2023-02-19T13:52:58.722Z,25
2023-02-19T13:55:35.674Z,24
2023-02-19T13:58:09.668Z,26
2023-02-19T14:00:42.559Z,27
2023-02-19T14:03:16.269Z,24
2023-02-19T14:05:53.169Z,28
2023-02-19T14:08:26.588Z,28
2023-02-19T14:11:04.667Z,20
2023-02-19T14:13:37.273Z,28
2023-02-19T14:16:15.948Z,28
2023-02-19T14:18:50.035Z,24
2023-02-19T14:21:23.304Z,26
2023-02-19T14:24:00.291Z,28
2023-02-19T14:26:33.157Z,21
2023-02-19T14:29:10.150Z,24
2023-02-19T14:31:43.146Z,23
2023-02-19T14:34:16.750Z,24
2023-02-19T14:36:50.212Z,26
2023-02-19T14:39:27.917Z,24
2023-02-19T14:42:05.452Z,16
2023-02-19T14:44:38.440Z,28
2023-02-19T14:47:11.845Z,32
2023-02-19T14:49:48.801Z,24
2023-02-19T14:52:25.987Z,24
2023-02-19T14:55:00.945Z,28
2023-02-19T14:57:34.545Z,24
2023-02-19T15:00:13.976Z,28
2023-02-19T15:02:45.444Z,40
2023-02-19T15:05:22.766Z,34
2023-02-19T15:08:00.408Z,24
2023-02-19T15:10:37.397Z,36
2023-02-19T15:13:10.158Z,32
2023-02-19T15:15:45.137Z,32
2023-02-19T15:18:17.520Z,32
2023-02-19T15:20:55.529Z,28
2023-02-19T15:23:28.906Z,24
2023-02-19T15:26:05.383Z,24
2023-02-19T15:28:38.884Z,32
2023-02-19T15:31:16.193Z,32
2023-02-19T15:33:51.797Z,30
2023-02-19T15:36:25.501Z,42
2023-02-19T15:38:58.282Z,32
2023-02-19T15:41:35.245Z,32
2023-02-19T15:44:09.304Z,32
2023-02-19T15:46:42.563Z,34
2023-02-19T15:49:15.851Z,32
2023-02-19T15:51:53.219Z,32
2023-02-19T15:54:29.252Z,32
2023-02-19T15:57:02.867Z,32
2023-02-19T15:59:37.011Z,36
2023-02-19T16:02:08.974Z,40
2023-02-19T16:04:42.247Z,40
2023-02-19T16:07:16.503Z,49
2023-02-19T16:09:50.745Z,40
2023-02-19T16:12:24.884Z,44
2023-02-19T16:15:02.728Z,34
2023-02-19T16:17:46.476Z,44
2023-02-19T16:20:20.062Z,44
2023-02-19T16:22:56.932Z,36
2023-02-19T16:25:29.957Z,44
2023-02-19T16:28:11.005Z,36
2023-02-19T16:30:49.029Z,40
2023-02-19T16:33:30.496Z,48
2023-02-19T16:36:04.656Z,44
2023-02-19T16:38:40.230Z,44
2023-02-19T16:41:14.223Z,35
2023-02-19T16:43:49.066Z,39
2023-02-19T16:46:30.473Z,32
2023-02-19T16:49:07.335Z,37
2023-02-19T16:51:40.520Z,37
2023-02-19T16:54:14.074Z,44
2023-02-19T16:56:48.312Z,41
2023-02-19T16:59:26.293Z,39
2023-02-19T17:02:03.977Z,41
2023-02-19T17:04:41.254Z,40
2023-02-19T17:07:14.761Z,45
2023-02-19T17:09:52.415Z,40
2023-02-19T17:12:28.342Z,40
2023-02-19T17:15:07.006Z,44
2023-02-19T17:17:43.895Z,44
2023-02-19T17:20:23.431Z,48
2023-02-19T17:22:57.945Z,45
2023-02-19T17:25:35.027Z,63
2023-02-19T17:28:13.632Z,65
2023-02-19T17:30:47.896Z,57
2023-02-19T17:33:25.948Z,56
2023-02-19T17:35:59.280Z,58
2023-02-19T17:38:32.522Z,54
2023-02-19T17:41:09.366Z,55
2023-02-19T17:43:42.253Z,56
2023-02-19T17:46:15.810Z,56
2023-02-19T17:48:48.828Z,64
2023-02-19T17:51:25.046Z,63
2023-02-19T17:53:59.087Z,64
2023-02-19T17:56:40.576Z,72
2023-02-19T17:59:21.021Z,61
2023-02-19T18:01:55.174Z,56
2023-02-19T18:04:31.953Z,64
2023-02-19T18:07:08.625Z,76
2023-02-19T18:09:41.114Z,83
2023-02-19T18:12:17.787Z,68
2023-02-19T18:14:55.987Z,61
2023-02-19T18:17:28.904Z,58
2023-02-19T18:20:03.036Z,61
2023-02-19T18:22:37.080Z,56
2023-02-19T18:25:10.901Z,52
2023-02-19T18:27:46.155Z,52
2023-02-19T18:30:19.108Z,48
2023-02-19T18:32:56.427Z,52
2023-02-19T18:35:30.097Z,52
2023-02-19T18:38:06.938Z,57
2023-02-19T18:40:46.584Z,74
2023-02-19T18:43:21.703Z,74
2023-02-19T18:45:59.328Z,58
2023-02-19T18:48:36.979Z,60
2023-02-19T18:51:14.059Z,52
2023-02-19T18:53:47.025Z,50
2023-02-19T18:56:21.118Z,48
2023-02-19T18:58:55.500Z,50
2023-02-19T19:01:32.122Z,52
2023-02-19T19:04:12.922Z,50
2023-02-19T19:06:46.035Z,51
2023-02-19T19:09:18.824Z,52
2023-02-19T19:11:53.065Z,56
2023-02-19T19:14:30.014Z,56
2023-02-19T19:17:02.792Z,56
2023-02-19T19:19:36.532Z,56
2023-02-19T19:22:12.344Z,53
2023-02-19T19:24:44.492Z,48
2023-02-19T19:27:18.006Z,49
2023-02-19T19:29:50.746Z,55
2023-02-19T19:32:24.480Z,56
2023-02-19T19:34:58.356Z,56
2023-02-19T19:37:35.229Z,50
2023-02-19T19:40:13.210Z,49
2023-02-19T19:42:48.017Z,50
2023-02-19T19:45:20.464Z,50
2023-02-19T19:47:57.363Z,52
2023-02-19T19:50:31.040Z,52
2023-02-19T19:53:04.165Z,52
2023-02-19T19:55:38.368Z,49
2023-02-19T19:58:11.221Z,46
2023-02-19T20:00:44.143Z,52
2023-02-19T20:03:21.729Z,47
2023-02-19T20:05:55.052Z,48
2023-02-19T20:08:28.933Z,48
2023-02-19T20:11:06.173Z,48
2023-02-19T20:13:38.863Z,47
2023-02-19T20:16:11.950Z,48
2023-02-19T20:18:51.240Z,51
2023-02-19T20:21:23.979Z,52
2023-02-19T20:23:57.940Z,50
2023-02-19T20:26:34.521Z,49
2023-02-19T20:29:09.370Z,48
2023-02-19T20:31:43.058Z,48
2023-02-19T20:34:19.619Z,48
2023-02-19T20:36:54.780Z,47
2023-02-19T20:39:31.712Z,48
2023-02-19T20:42:07.659Z,48
2023-02-19T20:44:44.913Z,48
2023-02-19T20:47:18.949Z,48
2023-02-19T20:49:51.826Z,48
2023-02-19T20:52:32.494Z,48
2023-02-19T20:55:12.730Z,47
2023-02-19T20:57:52.175Z,48
2023-02-19T21:00:24.919Z,48
2023-02-19T21:02:59.192Z,49
2023-02-19T21:05:32.772Z,40
2023-02-19T21:08:09.905Z,44
2023-02-19T21:10:47.794Z,44
2023-02-19T21:13:25.051Z,45
2023-02-19T21:16:01.949Z,47
2023-02-19T21:18:39.165Z,42
2023-02-19T21:21:19.013Z,44
2023-02-19T21:23:56.078Z,41
2023-02-19T21:26:34.196Z,47
2023-02-19T21:29:07.204Z,41
2023-02-19T21:31:41.924Z,36
2023-02-19T21:34:15.484Z,24
2023-02-19T21:36:47.830Z,28
2023-02-19T21:39:21.790Z,20
2023-02-19T21:41:55.440Z,16
2023-02-19T21:44:35.143Z,8
2023-02-19T21:47:09.069Z,8
2023-02-19T21:49:45.698Z,8
2023-02-19T21:52:18.590Z,12
2023-02-19T21:54:51.557Z,4
2023-02-19T21:57:24.911Z,4
2023-02-19T21:59:57.882Z,0
2023-02-19T22:02:28.881Z,4
2023-02-19T22:05:01.407Z,4
2023-02-19T22:07:35.269Z,12
2023-02-19T22:10:09.114Z,8
2023-02-19T22:12:43.081Z,12
2023-02-19T22:15:18.034Z,8
2023-02-19T22:17:51.286Z,8
2023-02-19T22:20:27.417Z,8
2023-02-19T22:23:00.160Z,8
2023-02-19T22:25:37.810Z,4
2023-02-19T22:28:11.894Z,8
2023-02-19T22:30:50.598Z,8
2023-02-19T22:33:30.278Z,4
2023-02-19T22:36:07.709Z,18
2023-02-19T22:38:40.264Z,17
2023-02-19T22:41:16.767Z,20
2023-02-19T22:43:53.195Z,26
2023-02-19T22:46:27.166Z,20
2023-02-19T22:49:04.795Z,20
2023-02-19T22:51:38.061Z,20
2023-02-19T22:54:11.854Z,20
2023-02-19T22:56:45.571Z,22
2023-02-19T22:59:19.596Z,14
2023-02-19T23:01:57.325Z,14
2023-02-19T23:04:31.770Z,16
2023-02-19T23:07:05.287Z,12
2023-02-19T23:09:43.383Z,12
2023-02-19T23:12:15.979Z,11
2023-02-19T23:14:55.409Z,8
2023-02-19T23:17:29.752Z,13
2023-02-19T23:20:02.120Z,16
2023-02-19T23:22:37.155Z,12
2023-02-19T23:25:18.986Z,8
2023-02-19T23:27:54.908Z,19
2023-02-19T23:30:31.279Z,12
2023-02-19T23:33:07.854Z,12
2023-02-19T23:35:41.032Z,17
2023-02-19T23:38:14.587Z,12
2023-02-19T23:40:47.706Z,16
2023-02-19T23:43:24.399Z,12
2023-02-19T23:46:01.959Z,12
2023-02-19T23:48:38.503Z,14
2023-02-19T23:51:15.998Z,20
2023-02-19T23:53:50.750Z,12
2023-02-19T23:56:27.521Z,14
2023-02-19T23:59:07.167Z,16
